createdAt,value
2023-03-22T00:02:16.601Z,54.67
2023-03-22T00:04:44.834Z,54.68
2023-03-22T00:07:12.686Z,54.72
2023-03-22T00:09:40.684Z,54.75
2023-03-22T00:12:09.204Z,54.76
2023-03-22T00:14:37.175Z,54.79
2023-03-22T00:17:05.001Z,54.81
2023-03-22T00:19:34.110Z,54.84
2023-03-22T00:22:03.710Z,54.83
2023-03-22T00:24:31.530Z,54.87
2023-03-22T00:27:00.987Z,54.86
2023-03-22T00:29:28.980Z,54.92
2023-03-22T00:31:56.964Z,54.90
2023-03-22T00:34:25.152Z,54.94
2023-03-22T00:36:53.297Z,54.96
2023-03-22T00:39:24.385Z,55.01
2023-03-22T00:41:52.574Z,55.04
2023-03-22T00:44:20.459Z,55.02
2023-03-22T00:46:48.284Z,55.08
2023-03-22T00:49:17.480Z,55.12
2023-03-22T00:51:45.827Z,55.15
2023-03-22T00:54:14.016Z,55.17
2023-03-22T00:56:45.588Z,55.21
2023-03-22T00:59:13.901Z,55.21
2023-03-22T01:01:42.589Z,55.22
2023-03-22T01:04:15.480Z,55.24
2023-03-22T01:06:44.722Z,55.29
2023-03-22T01:09:15.236Z,55.32
2023-03-22T01:11:45.306Z,55.30
2023-03-22T01:14:14.080Z,55.35
2023-03-22T01:16:42.546Z,55.33
2023-03-22T01:19:11.162Z,55.42
2023-03-22T01:21:39.511Z,55.42
2023-03-22T01:24:07.707Z,55.45
2023-03-22T01:26:35.942Z,55.46
2023-03-22T01:29:03.935Z,55.48
2023-03-22T01:31:31.918Z,55.45
2023-03-22T01:34:00.154Z,55.44
2023-03-22T01:36:28.048Z,55.51
2023-03-22T01:38:56.561Z,55.55
2023-03-22T01:41:25.482Z,55.57
2023-03-22T01:44:09.613Z,55.58
2023-03-22T01:46:38.231Z,55.57
2023-03-22T01:49:28.670Z,55.62
2023-03-22T01:52:02.456Z,55.66
2023-03-22T01:54:37.732Z,55.66
2023-03-22T01:57:11.659Z,55.68
2023-03-22T01:59:41.675Z,55.71
2023-03-22T02:02:19.020Z,55.67
2023-03-22T02:04:58.099Z,55.70
2023-03-22T02:07:27.705Z,55.74
2023-03-22T02:09:56.924Z,55.76
2023-03-22T02:12:37.100Z,55.77
2023-03-22T02:15:12.701Z,55.80
2023-03-22T02:17:44.048Z,55.83
2023-03-22T02:20:25.219Z,55.81
2023-03-22T02:23:31.396Z,55.85
2023-03-22T02:26:31.838Z,55.89
2023-03-22T02:29:19.375Z,55.94
2023-03-22T02:32:30.379Z,55.94
2023-03-22T02:35:23.059Z,55.98
2023-03-22T02:37:51.191Z,56.01
2023-03-22T02:40:36.163Z,56.05
2023-03-22T02:43:38.555Z,56.06
2023-03-22T02:46:12.881Z,56.09
2023-03-22T02:49:19.729Z,56.09
2023-03-22T02:51:55.738Z,56.10
2023-03-22T02:55:00.774Z,56.10
2023-03-22T02:57:35.137Z,56.08
2023-03-22T03:00:16.154Z,56.11
2023-03-22T03:02:49.653Z,56.11
2023-03-22T03:05:19.546Z,56.08
2023-03-22T03:07:53.246Z,56.13
2023-03-22T03:10:23.263Z,56.14
2023-03-22T03:12:51.305Z,56.10
2023-03-22T03:15:21.203Z,56.12
2023-03-22T03:18:01.532Z,56.11
2023-03-22T03:20:54.558Z,56.08
2023-03-22T03:23:33.372Z,56.05
2023-03-22T03:26:13.673Z,56.03
2023-03-22T03:28:58.786Z,56.06
2023-03-22T03:32:05.572Z,56.00
2023-03-22T03:34:42.299Z,56.01
2023-03-22T03:37:16.058Z,55.95
2023-03-22T03:40:12.925Z,55.94
2023-03-22T03:42:48.326Z,55.96
2023-03-22T03:45:18.485Z,55.93
2023-03-22T03:47:48.504Z,55.94
2023-03-22T03:50:18.489Z,55.95
2023-03-22T03:52:46.640Z,55.96
2023-03-22T03:55:15.570Z,55.96
2023-03-22T03:57:43.792Z,55.97
2023-03-22T04:00:14.784Z,55.97
2023-03-22T04:02:45.400Z,55.98
2023-03-22T04:05:14.922Z,55.98
2023-03-22T04:07:43.025Z,55.93
2023-03-22T04:10:11.400Z,55.93
2023-03-22T04:12:39.304Z,55.96
2023-03-22T04:15:08.424Z,55.94
2023-03-22T04:17:37.869Z,55.91
2023-03-22T04:20:07.807Z,55.87
2023-03-22T04:22:38.431Z,55.87
2023-03-22T04:25:15.160Z,55.85
2023-03-22T04:27:45.863Z,55.83
2023-03-22T04:30:22.484Z,55.82
2023-03-22T04:32:53.285Z,55.77
2023-03-22T04:35:23.247Z,55.79
2023-03-22T04:37:53.867Z,55.80
2023-03-22T04:40:22.206Z,55.81
2023-03-22T04:42:51.499Z,55.86
2023-03-22T04:45:19.543Z,55.85
2023-03-22T04:47:48.533Z,55.87
2023-03-22T04:50:16.596Z,55.79
2023-03-22T04:52:45.614Z,55.75
2023-03-22T04:55:13.788Z,55.69
2023-03-22T04:57:50.043Z,55.65
2023-03-22T05:00:18.866Z,55.58
2023-03-22T05:02:48.610Z,55.59
2023-03-22T05:05:16.913Z,55.59
2023-03-22T05:07:45.616Z,55.57
2023-03-22T05:10:13.952Z,55.51
2023-03-22T05:12:42.266Z,55.47
2023-03-22T05:15:11.352Z,55.46
2023-03-22T05:17:39.527Z,55.43
2023-03-22T05:20:10.159Z,55.35
2023-03-22T05:22:40.950Z,55.32
2023-03-22T05:25:11.166Z,55.23
2023-03-22T05:27:40.383Z,55.17
2023-03-22T05:30:10.121Z,55.20
2023-03-22T05:32:43.164Z,55.16
2023-03-22T05:35:12.098Z,55.13
2023-03-22T05:37:41.681Z,55.14
2023-03-22T05:40:10.445Z,55.15
2023-03-22T05:42:38.850Z,55.08
2023-03-22T05:45:09.581Z,55.03
2023-03-22T05:47:39.691Z,55.00
2023-03-22T05:50:11.044Z,54.96
2023-03-22T05:52:39.160Z,54.93
2023-03-22T05:55:09.713Z,54.85
2023-03-22T05:57:37.682Z,54.74
2023-03-22T06:00:13.463Z,54.68
2023-03-22T06:02:48.925Z,54.61
2023-03-22T06:05:17.651Z,54.66
2023-03-22T06:07:46.153Z,54.70
2023-03-22T06:10:15.583Z,54.70
2023-03-22T06:12:43.565Z,54.72
2023-03-22T06:15:13.895Z,54.68
2023-03-22T06:17:44.741Z,54.70
2023-03-22T06:20:14.694Z,54.62
2023-03-22T06:22:44.076Z,54.65
2023-03-22T06:25:12.393Z,54.63
2023-03-22T06:27:41.072Z,54.58
2023-03-22T06:30:09.692Z,54.61
2023-03-22T06:32:38.828Z,54.61
2023-03-22T06:35:09.110Z,54.62
2023-03-22T06:37:36.981Z,54.54
2023-03-22T06:40:05.654Z,54.49
2023-03-22T06:42:35.578Z,54.51
2023-03-22T06:45:04.812Z,54.48
2023-03-22T06:47:33.662Z,54.47
2023-03-22T06:50:06.067Z,54.44
2023-03-22T06:52:35.356Z,54.39
2023-03-22T06:55:03.647Z,54.34
2023-03-22T06:57:31.636Z,54.31
2023-03-22T07:00:00.178Z,54.21
2023-03-22T07:02:28.048Z,54.16
2023-03-22T07:04:57.478Z,54.03
2023-03-22T07:07:26.415Z,53.96
2023-03-22T07:09:54.506Z,53.89
2023-03-22T07:12:23.082Z,53.77
2023-03-22T07:14:51.794Z,53.70
2023-03-22T07:17:21.071Z,53.57
2023-03-22T07:19:49.251Z,53.52
2023-03-22T07:22:17.667Z,53.44
2023-03-22T07:24:56.170Z,53.32
2023-03-22T07:27:26.424Z,53.08
2023-03-22T07:29:54.610Z,52.56
2023-03-22T07:32:23.221Z,52.11
2023-03-22T07:34:52.807Z,52.09
2023-03-22T07:37:21.007Z,51.92
2023-03-22T07:39:48.943Z,51.72
2023-03-22T07:42:17.502Z,51.59
2023-03-22T07:44:49.922Z,51.45
2023-03-22T07:47:37.701Z,51.37
2023-03-22T07:50:11.929Z,51.29
2023-03-22T07:52:44.512Z,51.16
2023-03-22T07:55:14.325Z,51.07
2023-03-22T07:57:42.778Z,50.71
2023-03-22T08:00:11.282Z,50.45
2023-03-22T08:02:45.996Z,49.64
2023-03-22T08:05:15.620Z,49.56
2023-03-22T08:07:44.042Z,49.07
2023-03-22T08:10:12.262Z,49.17
2023-03-22T08:12:41.012Z,49.09
2023-03-22T08:15:10.341Z,48.87
2023-03-22T08:17:38.987Z,49.02
2023-03-22T08:20:09.080Z,48.95
2023-03-22T08:22:38.498Z,49.04
2023-03-22T08:25:11.407Z,48.80
2023-03-22T08:27:39.564Z,48.59
2023-03-22T08:30:08.204Z,48.36
2023-03-22T08:32:36.790Z,47.95
2023-03-22T08:35:06.485Z,46.67
2023-03-22T08:37:34.659Z,44.97
2023-03-22T08:40:07.435Z,43.07
2023-03-22T08:42:36.661Z,40.99
2023-03-22T08:45:05.160Z,39.21
2023-03-22T08:47:33.484Z,36.45
2023-03-22T08:50:02.465Z,35.97
2023-03-22T08:52:32.582Z,34.85
2023-03-22T08:55:01.250Z,33.31
2023-03-22T08:57:31.385Z,32.88
2023-03-22T09:00:00.944Z,31.29
2023-03-22T09:02:28.971Z,31.01
2023-03-22T09:04:57.442Z,30.13
2023-03-22T09:07:25.977Z,29.93
2023-03-22T09:09:55.215Z,28.97
2023-03-22T09:12:23.246Z,28.76
2023-03-22T09:14:52.055Z,27.70
2023-03-22T09:17:22.071Z,27.80
2023-03-22T09:19:57.684Z,27.61
2023-03-22T09:22:32.894Z,27.71
2023-03-22T09:25:01.852Z,27.29
2023-03-22T09:27:30.873Z,27.35
2023-03-22T09:30:00.329Z,27.00
2023-03-22T09:32:28.284Z,27.22
2023-03-22T09:34:58.145Z,26.56
2023-03-22T09:37:30.403Z,26.38
2023-03-22T09:39:58.722Z,27.12
2023-03-22T09:42:35.046Z,26.71
2023-03-22T09:45:06.094Z,26.61
2023-03-22T09:47:45.003Z,26.37
2023-03-22T09:50:20.355Z,26.27
2023-03-22T09:52:49.793Z,26.24
2023-03-22T09:55:35.026Z,26.46
2023-03-22T09:58:27.134Z,27.26
2023-03-22T10:01:02.846Z,26.92
2023-03-22T10:04:01.647Z,26.76
2023-03-22T10:06:30.932Z,27.87
2023-03-22T10:09:11.972Z,28.21
2023-03-22T10:11:45.797Z,29.18
2023-03-22T10:14:39.511Z,30.24
2023-03-22T10:17:13.407Z,30.98
2023-03-22T10:20:06.259Z,31.71
2023-03-22T10:22:43.415Z,31.55
2023-03-22T10:25:19.045Z,31.81
2023-03-22T10:27:50.563Z,32.95
2023-03-22T10:30:27.519Z,33.34
2023-03-22T10:33:04.074Z,34.35
2023-03-22T10:35:32.706Z,34.43
2023-03-22T10:38:03.932Z,34.84
2023-03-22T10:40:35.186Z,35.56
2023-03-22T10:43:26.147Z,35.51
2023-03-22T10:45:57.036Z,36.33
2023-03-22T10:48:29.998Z,35.78
2023-03-22T10:50:59.970Z,36.24
2023-03-22T10:53:47.906Z,36.48
2023-03-22T10:56:18.922Z,36.39
2023-03-22T10:58:48.977Z,36.83
2023-03-22T11:01:44.376Z,37.64
2023-03-22T11:04:17.219Z,37.98
2023-03-22T11:06:55.654Z,38.37
2023-03-22T11:09:25.093Z,38.28
2023-03-22T11:11:57.158Z,38.09
2023-03-22T11:14:27.881Z,37.39
2023-03-22T11:16:58.501Z,37.27
2023-03-22T11:19:31.739Z,36.67
2023-03-22T11:22:01.077Z,38.07
2023-03-22T11:24:32.280Z,38.42
2023-03-22T11:27:03.432Z,38.11
2023-03-22T11:29:39.539Z,39.17
2023-03-22T11:32:22.680Z,39.09
2023-03-22T11:35:00.890Z,39.87
2023-03-22T11:37:29.227Z,40.42
2023-03-22T11:40:04.949Z,40.44
2023-03-22T11:42:35.890Z,40.68
2023-03-22T11:45:04.041Z,41.15
2023-03-22T11:47:38.304Z,41.38
2023-03-22T11:50:10.707Z,41.33
2023-03-22T11:52:38.899Z,41.79
2023-03-22T11:55:07.444Z,41.96
2023-03-22T11:57:37.099Z,42.19
2023-03-22T12:00:11.916Z,42.26
2023-03-22T12:02:50.444Z,42.49
2023-03-22T12:05:27.572Z,42.61
2023-03-22T12:08:03.819Z,42.35
2023-03-22T12:10:38.653Z,42.80
2023-03-22T12:13:21.505Z,42.81
2023-03-22T12:15:55.944Z,42.71
2023-03-22T12:18:34.528Z,42.98
2023-03-22T12:21:02.842Z,43.36
2023-03-22T12:23:37.065Z,43.46
2023-03-22T12:26:17.909Z,43.81
2023-03-22T12:29:27.820Z,43.70
2023-03-22T12:32:03.522Z,43.60
2023-03-22T12:34:44.261Z,43.89
2023-03-22T12:37:34.548Z,44.11
2023-03-22T12:40:08.301Z,44.37
2023-03-22T12:42:50.772Z,44.52
2023-03-22T12:45:24.983Z,44.74
2023-03-22T12:48:01.275Z,45.06
2023-03-22T12:50:36.502Z,45.21
2023-03-22T12:53:05.811Z,45.34
2023-03-22T12:55:39.807Z,45.35
2023-03-22T12:58:13.098Z,45.38
2023-03-22T13:00:48.665Z,45.49
2023-03-22T13:03:16.429Z,45.40
2023-03-22T13:05:47.148Z,45.39
2023-03-22T13:08:22.581Z,45.42
2023-03-22T13:10:50.974Z,45.45
2023-03-22T13:13:21.920Z,45.62
2023-03-22T13:16:02.927Z,45.63
2023-03-22T13:18:40.358Z,45.74
2023-03-22T13:21:19.469Z,45.81
2023-03-22T13:24:20.932Z,45.81
2023-03-22T13:26:54.789Z,45.82
2023-03-22T13:29:25.780Z,45.93
2023-03-22T13:32:07.233Z,45.93
2023-03-22T13:34:44.369Z,46.10
2023-03-22T13:37:31.802Z,46.06
2023-03-22T13:40:02.369Z,46.04
2023-03-22T13:42:41.650Z,46.17
2023-03-22T13:45:32.046Z,46.10
2023-03-22T13:48:28.413Z,46.00
2023-03-22T13:50:58.547Z,46.01
2023-03-22T13:53:31.216Z,45.94
2023-03-22T13:56:03.777Z,45.67
2023-03-22T13:58:53.192Z,45.56
2023-03-22T14:01:29.630Z,45.22
2023-03-22T14:04:01.420Z,46.18
2023-03-22T14:06:34.095Z,46.25
2023-03-22T14:09:11.939Z,45.85
2023-03-22T14:11:46.948Z,45.87
2023-03-22T14:14:27.749Z,45.84
2023-03-22T14:16:58.722Z,46.25
2023-03-22T14:19:32.891Z,46.37
